createdAt,value
2023-01-01T14:21:32.046Z,18.19
2023-01-01T14:24:03.819Z,18.14
2023-01-01T14:27:04.409Z,18.09
2023-01-01T14:29:35.215Z,18.03
2023-01-01T14:32:23.395Z,18.01
2023-01-01T14:35:02.330Z,17.95
2023-01-01T14:37:31.987Z,17.86
2023-01-01T14:40:26.333Z,17.79
2023-01-01T14:43:02.711Z,17.69
2023-01-01T14:45:34.735Z,17.64
2023-01-01T14:48:06.566Z,17.58
2023-01-01T14:50:36.631Z,17.52
2023-01-01T14:53:09.783Z,17.46
2023-01-01T14:55:41.219Z,17.44
2023-01-01T14:58:13.659Z,17.36
2023-01-01T15:00:42.586Z,17.30
2023-01-01T15:03:16.506Z,17.25
2023-01-01T15:05:46.757Z,17.19
2023-01-01T15:08:21.133Z,17.15
2023-01-01T15:10:50.142Z,17.16
2023-01-01T15:13:21.334Z,17.09
2023-01-01T15:15:54.617Z,17.00
2023-01-01T15:18:40.376Z,16.96
2023-01-01T15:21:15.843Z,16.92
2023-01-01T15:23:53.047Z,16.86
2023-01-01T15:26:29.829Z,16.75
2023-01-01T15:29:00.287Z,16.72
2023-01-01T15:31:37.593Z,16.70
2023-01-01T15:34:20.865Z,16.67
2023-01-01T15:36:50.621Z,16.58
2023-01-01T15:39:19.971Z,16.50
2023-01-01T15:41:50.213Z,16.43
2023-01-01T15:44:30.305Z,16.37
2023-01-01T15:47:12.821Z,16.29
2023-01-01T15:49:43.545Z,16.22
2023-01-01T15:52:55.185Z,16.16
2023-01-01T15:55:29.647Z,16.02
2023-01-01T15:57:59.338Z,15.93
2023-01-01T16:00:32.618Z,15.87
2023-01-01T16:03:04.857Z,15.82
2023-01-01T16:05:33.664Z,15.83
2023-01-01T16:08:03.941Z,15.80
2023-01-01T16:10:33.038Z,15.79
2023-01-01T16:13:04.531Z,15.80
2023-01-01T16:15:34.838Z,15.81
2023-01-01T16:18:05.204Z,15.79
